createdAt,value
2018-02-27T00:00:24.762Z,0
2018-02-27T00:01:33.582Z,0
2018-02-27T00:02:42.405Z,0
2018-02-27T00:03:51.225Z,0
2018-02-27T00:05:00.046Z,0
2018-02-27T00:06:08.870Z,0
2018-02-27T00:07:17.693Z,0
2018-02-27T00:08:26.515Z,0
2018-02-27T00:09:35.337Z,0
2018-02-27T00:10:44.158Z,0
2018-02-27T00:11:52.979Z,0
2018-02-27T00:13:02.104Z,0
2018-02-27T00:14:10.925Z,0
2018-02-27T00:15:19.748Z,0
2018-02-27T00:16:28.567Z,0
2018-02-27T00:17:37.391Z,0
2018-02-27T00:18:46.214Z,0
2018-02-27T00:19:55.035Z,0
2018-02-27T00:21:03.854Z,0
2018-02-27T00:22:12.680Z,0
2018-02-27T00:23:21.506Z,0
2018-02-27T00:24:30.326Z,0
2018-02-27T00:25:39.145Z,0
2018-02-27T00:26:47.965Z,0
2018-02-27T00:27:56.790Z,0
2018-02-27T00:29:05.634Z,0
2018-02-27T00:30:14.429Z,0
2018-02-27T00:31:23.251Z,0
2018-02-27T00:32:32.075Z,0
2018-02-27T00:33:40.908Z,0
2018-02-27T00:34:49.725Z,0
2018-02-27T00:35:58.867Z,0
2018-02-27T00:37:07.690Z,0
2018-02-27T00:38:16.797Z,0
2018-02-27T00:39:25.666Z,0
2018-02-27T00:40:34.442Z,0
2018-02-27T00:41:43.263Z,0
2018-02-27T00:42:52.084Z,0
2018-02-27T00:44:00.904Z,0
2018-02-27T00:45:09.724Z,0
2018-02-27T00:46:18.548Z,0
2018-02-27T00:47:27.742Z,0
2018-02-27T00:48:36.562Z,0
2018-02-27T00:49:45.382Z,0
2018-02-27T00:50:54.205Z,0
2018-02-27T00:52:03.027Z,0
2018-02-27T00:53:12.004Z,0
2018-02-27T00:54:20.818Z,0
2018-02-27T00:55:29.640Z,0
2018-02-27T00:56:38.462Z,0
2018-02-27T00:57:47.285Z,0
2018-02-27T00:58:56.507Z,0
2018-02-27T01:00:05.330Z,0
2018-02-27T01:01:14.152Z,0
2018-02-27T01:02:22.971Z,0
2018-02-27T01:03:31.791Z,0
2018-02-27T01:04:40.611Z,0
2018-02-27T01:05:49.435Z,0
2018-02-27T01:06:58.256Z,0
2018-02-27T01:08:07.083Z,0
2018-02-27T01:09:15.900Z,0
2018-02-27T01:10:24.721Z,0
2018-02-27T01:11:33.543Z,0
2018-02-27T01:12:42.364Z,0
2018-02-27T01:13:51.185Z,0
2018-02-27T01:15:00.006Z,0
2018-02-27T01:16:09.077Z,0
2018-02-27T01:17:17.900Z,0
2018-02-27T01:18:26.721Z,0
2018-02-27T01:19:35.594Z,0
2018-02-27T01:20:44.414Z,0
2018-02-27T01:21:53.236Z,0
2018-02-27T01:23:02.333Z,0
2018-02-27T01:24:11.164Z,0
2018-02-27T01:25:19.978Z,0
2018-02-27T01:26:28.798Z,0
2018-02-27T01:27:37.669Z,0
2018-02-27T01:28:46.490Z,0
2018-02-27T01:29:55.312Z,0
2018-02-27T01:31:04.137Z,0
2018-02-27T01:32:12.958Z,0
2018-02-27T01:33:21.930Z,0
2018-02-27T01:34:30.750Z,0
2018-02-27T01:35:39.573Z,0
2018-02-27T01:36:48.393Z,0
2018-02-27T01:37:57.214Z,0
2018-02-27T01:39:06.412Z,0
2018-02-27T01:40:15.236Z,0
2018-02-27T01:41:24.055Z,0
2018-02-27T01:42:32.885Z,0
2018-02-27T01:43:41.697Z,0
2018-02-27T01:44:50.618Z,0
2018-02-27T01:45:59.439Z,0
2018-02-27T01:47:08.265Z,0
2018-02-27T01:48:17.361Z,0
2018-02-27T01:49:26.184Z,0
2018-02-27T01:50:35.310Z,0
2018-02-27T01:51:44.132Z,0
2018-02-27T01:52:52.956Z,0
2018-02-27T01:54:01.780Z,0
2018-02-27T01:55:10.601Z,0
2018-02-27T01:56:19.423Z,0
2018-02-27T01:57:28.249Z,0
2018-02-27T01:58:37.072Z,0
2018-02-27T01:59:45.897Z,0
2018-02-27T02:00:54.720Z,0
2018-02-27T02:02:03.919Z,0
2018-02-27T02:03:12.739Z,0
2018-02-27T02:04:21.563Z,0
2018-02-27T02:05:30.937Z,0
2018-02-27T02:06:40.032Z,0
2018-02-27T02:07:48.853Z,0
2018-02-27T02:08:57.673Z,0
2018-02-27T02:10:06.495Z,0
2018-02-27T02:11:15.317Z,0
2018-02-27T02:12:24.138Z,0
2018-02-27T02:13:33.340Z,0
2018-02-27T02:14:42.162Z,0
2018-02-27T02:15:50.982Z,0
2018-02-27T02:16:59.803Z,0
2018-02-27T02:18:08.902Z,0
2018-02-27T02:19:18.308Z,0
2018-02-27T02:20:27.129Z,0
2018-02-27T02:21:36.235Z,0
2018-02-27T02:22:45.056Z,0
2018-02-27T02:23:53.878Z,0
2018-02-27T02:25:02.949Z,0
2018-02-27T02:26:11.769Z,0
2018-02-27T02:27:20.591Z,0
2018-02-27T02:28:29.415Z,0
2018-02-27T02:29:38.240Z,0
2018-02-27T02:30:47.058Z,0
2018-02-27T02:31:55.883Z,0
2018-02-27T02:33:04.708Z,0
2018-02-27T02:34:13.813Z,0
2018-02-27T02:35:22.637Z,0
2018-02-27T02:36:31.610Z,0
2018-02-27T02:37:40.439Z,0
2018-02-27T02:38:49.261Z,0
2018-02-27T02:39:58.088Z,0
2018-02-27T02:41:06.905Z,0
2018-02-27T02:42:16.006Z,0
2018-02-27T02:43:24.830Z,0
2018-02-27T02:44:33.651Z,0
2018-02-27T02:45:42.475Z,0
2018-02-27T02:46:51.295Z,0
2018-02-27T02:48:00.167Z,0
2018-02-27T02:49:08.990Z,0
2018-02-27T02:50:18.086Z,0
2018-02-27T02:51:26.907Z,0
2018-02-27T02:52:35.731Z,0
2018-02-27T02:53:44.554Z,0
2018-02-27T02:54:53.374Z,0
2018-02-27T02:56:02.198Z,0
2018-02-27T02:57:11.019Z,0
2018-02-27T02:58:19.839Z,0
2018-02-27T02:59:28.943Z,0
2018-02-27T03:00:37.758Z,0
2018-02-27T03:01:46.579Z,0
2018-02-27T03:02:55.401Z,0
2018-02-27T03:04:04.223Z,0
2018-02-27T03:05:13.346Z,0
2018-02-27T03:06:22.179Z,0
2018-02-27T03:07:30.993Z,0
2018-02-27T03:08:39.815Z,0
2018-02-27T03:09:48.916Z,0
2018-02-27T03:10:57.987Z,0
2018-02-27T03:12:06.814Z,0
2018-02-27T03:13:15.632Z,0
2018-02-27T03:14:24.454Z,0
2018-02-27T03:15:33.278Z,0
2018-02-27T03:16:42.249Z,0
2018-02-27T03:17:51.073Z,0
2018-02-27T03:18:59.892Z,0
2018-02-27T03:20:08.713Z,0
2018-02-27T03:21:17.816Z,0
2018-02-27T03:22:26.786Z,0
2018-02-27T03:23:35.612Z,0
2018-02-27T03:24:44.437Z,0
2018-02-27T03:25:53.254Z,0
2018-02-27T03:27:02.078Z,0
2018-02-27T03:28:11.051Z,0
2018-02-27T03:29:19.869Z,0
2018-02-27T03:30:28.973Z,0
2018-02-27T03:31:37.798Z,0
2018-02-27T03:32:46.622Z,0
2018-02-27T03:33:55.447Z,0
2018-02-27T03:35:04.267Z,0
2018-02-27T03:36:13.088Z,0
2018-02-27T03:37:21.908Z,0
2018-02-27T03:38:30.728Z,0
2018-02-27T03:39:40.262Z,0
2018-02-27T03:40:49.051Z,0
2018-02-27T03:41:58.152Z,0
2018-02-27T03:43:06.973Z,0
2018-02-27T03:44:15.796Z,0
2018-02-27T03:45:24.613Z,0
2018-02-27T03:46:33.435Z,0
2018-02-27T03:47:42.255Z,0
2018-02-27T03:48:51.076Z,0
2018-02-27T03:49:59.898Z,0
2018-02-27T03:51:08.870Z,0
2018-02-27T03:52:17.692Z,0
2018-02-27T03:53:26.512Z,0
2018-02-27T03:54:35.335Z,0
2018-02-27T03:55:44.157Z,0
2018-02-27T03:56:53.126Z,0
2018-02-27T03:58:01.948Z,0
2018-02-27T03:59:10.770Z,0
2018-02-27T04:00:19.590Z,0
2018-02-27T04:01:28.409Z,0
2018-02-27T04:02:37.828Z,0
2018-02-27T04:03:46.651Z,0
2018-02-27T04:04:55.470Z,0
2018-02-27T04:06:04.292Z,0
2018-02-27T04:07:13.122Z,0
2018-02-27T04:08:22.088Z,0
2018-02-27T04:09:30.907Z,0
2018-02-27T04:10:39.729Z,0
2018-02-27T04:11:48.552Z,0
2018-02-27T04:12:57.373Z,0
2018-02-27T04:14:06.294Z,0
2018-02-27T04:15:15.117Z,0
2018-02-27T04:16:23.939Z,0
2018-02-27T04:17:32.758Z,0
2018-02-27T04:18:41.855Z,0
2018-02-27T04:19:50.965Z,0
2018-02-27T04:20:59.782Z,0
2018-02-27T04:22:08.601Z,0
2018-02-27T04:23:17.423Z,0
2018-02-27T04:24:26.242Z,0
2018-02-27T04:25:35.221Z,0
2018-02-27T04:26:44.040Z,0
2018-02-27T04:27:52.862Z,0
2018-02-27T04:29:01.685Z,0
2018-02-27T04:30:10.502Z,0
2018-02-27T04:31:19.478Z,0
2018-02-27T04:32:28.577Z,0
2018-02-27T04:33:37.398Z,0
2018-02-27T04:34:46.220Z,0
2018-02-27T04:35:55.321Z,0
2018-02-27T04:37:04.243Z,0
2018-02-27T04:38:13.076Z,0
2018-02-27T04:39:21.898Z,0
2018-02-27T04:40:30.717Z,0
2018-02-27T04:41:39.536Z,0
2018-02-27T04:42:48.508Z,0
2018-02-27T04:43:57.328Z,0
2018-02-27T04:45:06.155Z,0
2018-02-27T04:46:14.976Z,0
2018-02-27T04:47:23.798Z,0
2018-02-27T04:48:32.720Z,0
2018-02-27T04:49:41.539Z,0
2018-02-27T04:50:50.640Z,0
2018-02-27T04:51:59.461Z,0
2018-02-27T04:53:08.282Z,0
2018-02-27T04:54:17.101Z,0
2018-02-27T04:55:25.926Z,0
2018-02-27T04:56:34.748Z,0
2018-02-27T04:57:43.566Z,0
2018-02-27T04:58:52.387Z,0
2018-02-27T05:00:01.510Z,0
2018-02-27T05:01:10.330Z,0
2018-02-27T05:02:19.150Z,0
2018-02-27T05:03:27.971Z,0
2018-02-27T05:04:36.791Z,0
2018-02-27T05:05:46.191Z,0
2018-02-27T05:06:55.011Z,0
2018-02-27T05:08:03.832Z,0
2018-02-27T05:09:12.655Z,0
2018-02-27T05:10:22.029Z,0
2018-02-27T05:11:30.849Z,0
2018-02-27T05:12:39.968Z,0
2018-02-27T05:13:48.789Z,0
2018-02-27T05:14:57.883Z,0
2018-02-27T05:16:06.708Z,0
2018-02-27T05:17:15.937Z,0
2018-02-27T05:18:24.762Z,0
2018-02-27T05:19:33.862Z,0
2018-02-27T05:20:42.675Z,0
2018-02-27T05:21:51.499Z,0
2018-02-27T05:23:00.463Z,0
2018-02-27T05:24:09.333Z,0
2018-02-27T05:25:18.151Z,0
2018-02-27T05:26:26.972Z,0
2018-02-27T05:27:36.077Z,0
2018-02-27T05:28:44.898Z,0
2018-02-27T05:29:53.716Z,0
2018-02-27T05:31:02.537Z,0
2018-02-27T05:32:11.358Z,0
2018-02-27T05:33:20.180Z,0
2018-02-27T05:34:29.100Z,0
2018-02-27T05:35:37.920Z,0
2018-02-27T05:36:46.741Z,0
2018-02-27T05:37:55.561Z,0
2018-02-27T05:39:04.658Z,0
2018-02-27T05:40:13.878Z,0
2018-02-27T05:41:22.699Z,0
2018-02-27T05:42:31.520Z,0
2018-02-27T05:43:40.345Z,0
2018-02-27T05:44:49.165Z,0
2018-02-27T05:45:58.265Z,0
2018-02-27T05:47:07.366Z,0
2018-02-27T05:48:16.187Z,0
2018-02-27T05:49:25.008Z,0
2018-02-27T05:50:33.827Z,4
2018-02-27T05:51:42.799Z,0
2018-02-27T05:52:51.619Z,4
2018-02-27T05:54:00.440Z,4
2018-02-27T05:55:09.258Z,4
2018-02-27T05:56:18.082Z,4
2018-02-27T05:57:27.280Z,8
2018-02-27T05:58:36.929Z,8
2018-02-27T05:59:45.749Z,8
2018-02-27T06:00:54.574Z,12
2018-02-27T06:02:04.228Z,12
2018-02-27T06:03:13.150Z,16
2018-02-27T06:04:21.968Z,16
2018-02-27T06:05:30.789Z,20
2018-02-27T06:06:39.610Z,24
2018-02-27T06:07:48.447Z,28
2018-02-27T06:08:57.304Z,32
2018-02-27T06:10:06.127Z,36
2018-02-27T06:11:14.946Z,44
2018-02-27T06:12:23.766Z,48
2018-02-27T06:13:32.584Z,52
2018-02-27T06:14:41.408Z,60
2018-02-27T06:15:50.541Z,68
2018-02-27T06:16:59.329Z,80
2018-02-27T06:18:08.144Z,84
2018-02-27T06:19:16.967Z,96
2018-02-27T06:20:25.921Z,108
2018-02-27T06:21:34.709Z,116
2018-02-27T06:22:43.530Z,128
2018-02-27T06:23:52.662Z,140
2018-02-27T06:25:01.482Z,152
2018-02-27T06:26:10.303Z,164
2018-02-27T06:27:19.124Z,176
2018-02-27T06:28:27.968Z,188
2018-02-27T06:29:36.790Z,204
2018-02-27T06:30:45.887Z,216
2018-02-27T06:31:54.707Z,228
2018-02-27T06:33:03.527Z,240
2018-02-27T06:34:12.346Z,256
2018-02-27T06:35:21.167Z,272
2018-02-27T06:36:30.269Z,284
2018-02-27T06:37:39.087Z,296
2018-02-27T06:38:47.908Z,308
2018-02-27T06:39:56.729Z,316
2018-02-27T06:41:05.549Z,328
2018-02-27T06:42:14.369Z,344
2018-02-27T06:43:23.189Z,356
2018-02-27T06:44:32.017Z,364
2018-02-27T06:45:41.110Z,376
2018-02-27T06:46:50.132Z,388
2018-02-27T06:47:58.951Z,396
2018-02-27T06:49:07.773Z,408
2018-02-27T06:50:16.593Z,424
2018-02-27T06:51:25.411Z,444
2018-02-27T06:52:34.806Z,460
2018-02-27T06:53:43.631Z,476
2018-02-27T06:54:52.449Z,488
2018-02-27T06:56:01.266Z,500
2018-02-27T06:57:10.364Z,508
2018-02-27T06:58:19.283Z,520
2018-02-27T06:59:28.383Z,528
2018-02-27T07:00:37.203Z,540
2018-02-27T07:01:46.025Z,544
2018-02-27T07:02:54.847Z,552
2018-02-27T07:04:04.246Z,564
2018-02-27T07:05:13.064Z,576
2018-02-27T07:06:21.922Z,588
2018-02-27T07:07:30.706Z,612
2018-02-27T07:08:39.802Z,632
2018-02-27T07:09:48.772Z,652
2018-02-27T07:10:57.593Z,676
2018-02-27T07:12:06.414Z,708
2018-02-27T07:13:15.234Z,756
2018-02-27T07:14:24.056Z,792
2018-02-27T07:15:32.931Z,820
2018-02-27T07:16:41.746Z,852
2018-02-27T07:17:50.848Z,884
2018-02-27T07:18:59.948Z,892
2018-02-27T07:20:08.763Z,888
2018-02-27T07:21:17.734Z,896
2018-02-27T07:22:26.560Z,928
2018-02-27T07:23:35.377Z,996
2018-02-27T07:24:44.210Z,1040
2018-02-27T07:25:53.021Z,1056
2018-02-27T07:27:01.942Z,1036
2018-02-27T07:28:10.765Z,984
2018-02-27T07:29:19.584Z,936
2018-02-27T07:30:28.407Z,992
2018-02-27T07:31:37.230Z,996
2018-02-27T07:32:46.152Z,1008
2018-02-27T07:33:54.973Z,1064
2018-02-27T07:35:03.795Z,1184
2018-02-27T07:36:12.613Z,1332
2018-02-27T07:37:21.432Z,1404
2018-02-27T07:38:30.365Z,1448
2018-02-27T07:39:39.469Z,1496
2018-02-27T07:40:48.291Z,1548
2018-02-27T07:41:57.260Z,1536
2018-02-27T07:43:06.081Z,1432
2018-02-27T07:44:14.952Z,1428
2018-02-27T07:45:23.775Z,1468
2018-02-27T07:46:32.597Z,1484
2018-02-27T07:47:41.421Z,1568
2018-02-27T07:48:50.243Z,1716
2018-02-27T07:49:59.364Z,1796
2018-02-27T07:51:08.187Z,1860
2018-02-27T07:52:17.011Z,1864
2018-02-27T07:53:25.830Z,1856
2018-02-27T07:54:34.653Z,1856
2018-02-27T07:55:43.579Z,1832
2018-02-27T07:56:52.399Z,1816
2018-02-27T07:58:01.226Z,1888
2018-02-27T07:59:10.053Z,2044
2018-02-27T08:00:18.874Z,2116
2018-02-27T08:01:27.847Z,2128
2018-02-27T08:02:36.675Z,2112
2018-02-27T08:03:45.491Z,2104
2018-02-27T08:04:54.316Z,2120
2018-02-27T08:06:03.142Z,2152
2018-02-27T08:07:12.113Z,2224
2018-02-27T08:08:20.933Z,2332
2018-02-27T08:09:30.037Z,2476
2018-02-27T08:10:38.860Z,2572
2018-02-27T08:11:47.681Z,2536
2018-02-27T08:12:56.655Z,2476
2018-02-27T08:14:05.473Z,2320
2018-02-27T08:15:14.293Z,2164
2018-02-27T08:16:23.116Z,2048
2018-02-27T08:17:31.938Z,1872
2018-02-27T08:18:40.911Z,1844
2018-02-27T08:19:49.730Z,1840
2018-02-27T08:20:58.556Z,1852
2018-02-27T08:22:07.377Z,1920
2018-02-27T08:23:16.484Z,1980
2018-02-27T08:24:25.375Z,2068
2018-02-27T08:25:34.180Z,2068
2018-02-27T08:26:43.003Z,2072
2018-02-27T08:27:51.826Z,2232
2018-02-27T08:29:00.650Z,2264
2018-02-27T08:30:09.522Z,2272
2018-02-27T08:31:18.346Z,2572
2018-02-27T08:32:27.169Z,2896
2018-02-27T08:33:35.993Z,3676
2018-02-27T08:34:44.816Z,4144
2018-02-27T08:35:53.688Z,4476
2018-02-27T08:37:02.512Z,4640
2018-02-27T08:38:11.336Z,4748
2018-02-27T08:39:20.159Z,4800
2018-02-27T08:40:28.983Z,4468
2018-02-27T08:41:37.859Z,4100
2018-02-27T08:42:46.684Z,3916
2018-02-27T08:43:55.509Z,3932
2018-02-27T08:45:04.333Z,3988
2018-02-27T08:46:13.436Z,4028
2018-02-27T08:47:22.360Z,4092
2018-02-27T08:48:31.186Z,4012
2018-02-27T08:49:40.286Z,3880
2018-02-27T08:50:49.111Z,3728
2018-02-27T08:51:58.216Z,3796
2018-02-27T08:53:07.139Z,4032
2018-02-27T08:54:15.962Z,4076
2018-02-27T08:55:24.788Z,4128
2018-02-27T08:56:33.893Z,4212
2018-02-27T08:57:42.723Z,4152
2018-02-27T08:58:51.653Z,4224
2018-02-27T09:00:00.477Z,4180
2018-02-27T09:01:09.302Z,4152
2018-02-27T09:02:18.126Z,3388
2018-02-27T09:03:26.950Z,2932
2018-02-27T09:04:35.876Z,2772
2018-02-27T09:05:44.702Z,2640
2018-02-27T09:06:53.806Z,2564
2018-02-27T09:08:02.632Z,2480
2018-02-27T09:09:11.456Z,2564
2018-02-27T09:10:20.580Z,2556
2018-02-27T09:11:29.680Z,2860
2018-02-27T09:12:38.506Z,2680
2018-02-27T09:13:47.329Z,2640
2018-02-27T09:14:56.432Z,2876
2018-02-27T09:16:05.660Z,3500
2018-02-27T09:17:14.485Z,3280
2018-02-27T09:18:23.311Z,3280
2018-02-27T09:19:32.134Z,3052
2018-02-27T09:20:40.960Z,2904
2018-02-27T09:21:50.078Z,2636
2018-02-27T09:22:58.905Z,3364
2018-02-27T09:24:08.005Z,3684
2018-02-27T09:25:16.832Z,4276
2018-02-27T09:26:25.656Z,4336
2018-02-27T09:27:34.482Z,4040
2018-02-27T09:28:43.309Z,3116
2018-02-27T09:29:52.133Z,2796
2018-02-27T09:31:00.960Z,2700
2018-02-27T09:32:09.785Z,2620
2018-02-27T09:33:18.660Z,2540
2018-02-27T09:34:27.763Z,2240
2018-02-27T09:35:36.585Z,2172
2018-02-27T09:36:45.410Z,2064
2018-02-27T09:37:54.238Z,2000
2018-02-27T09:39:03.213Z,1988
2018-02-27T09:40:12.326Z,1956
2018-02-27T09:41:21.149Z,1952
2018-02-27T09:42:29.974Z,1896
2018-02-27T09:43:38.797Z,2028
2018-02-27T09:44:47.705Z,2060
2018-02-27T09:45:56.492Z,2508
2018-02-27T09:47:05.317Z,2040
2018-02-27T09:48:14.424Z,2616
2018-02-27T09:49:23.250Z,2252
2018-02-27T09:50:32.226Z,2372
2018-02-27T09:51:41.052Z,2448
2018-02-27T09:52:49.876Z,2524
2018-02-27T09:53:58.703Z,2532
2018-02-27T09:55:07.525Z,2432
2018-02-27T09:56:16.499Z,2556
2018-02-27T09:57:25.322Z,2588
2018-02-27T09:58:34.146Z,2764
2018-02-27T09:59:42.973Z,2772
2018-02-27T10:00:51.796Z,2592
2018-02-27T10:02:00.621Z,2940
2018-02-27T10:03:09.445Z,2860
2018-02-27T10:04:18.272Z,2668
2018-02-27T10:05:27.095Z,2692
2018-02-27T10:06:36.201Z,2612
2018-02-27T10:07:45.129Z,2356
2018-02-27T10:08:53.953Z,2720
2018-02-27T10:10:03.055Z,2828
2018-02-27T10:11:11.881Z,2432
2018-02-27T10:12:20.711Z,2352
2018-02-27T10:13:29.585Z,2628
2018-02-27T10:14:38.410Z,2376
2018-02-27T10:15:47.237Z,2248
2018-02-27T10:16:56.061Z,2196
2018-02-27T10:18:04.885Z,2164
2018-02-27T10:19:13.707Z,2116
2018-02-27T10:20:22.531Z,2096
2018-02-27T10:21:31.355Z,2092
2018-02-27T10:22:40.176Z,2124
2018-02-27T10:23:49.011Z,2180
2018-02-27T10:24:57.925Z,2248
2018-02-27T10:26:07.133Z,2392
2018-02-27T10:27:16.236Z,2292
2018-02-27T10:28:25.062Z,2008
2018-02-27T10:29:33.888Z,2168
2018-02-27T10:30:42.781Z,2428
2018-02-27T10:31:51.588Z,2552
2018-02-27T10:33:00.414Z,2384
2018-02-27T10:34:09.343Z,2348
2018-02-27T10:35:18.167Z,2120
2018-02-27T10:36:27.192Z,2596
2018-02-27T10:37:36.295Z,2624
2018-02-27T10:38:45.125Z,3176
2018-02-27T10:39:53.947Z,3708
2018-02-27T10:41:03.051Z,4624
2018-02-27T10:42:12.025Z,3168
2018-02-27T10:43:20.849Z,3100
2018-02-27T10:44:29.674Z,5224
2018-02-27T10:45:38.502Z,5044
2018-02-27T10:46:47.324Z,4548
2018-02-27T10:47:56.452Z,3532
2018-02-27T10:49:05.278Z,3264
2018-02-27T10:50:14.103Z,3116
2018-02-27T10:51:22.926Z,3492
2018-02-27T10:52:31.749Z,4256
2018-02-27T10:53:40.574Z,4560
2018-02-27T10:54:49.403Z,4908
2018-02-27T10:55:58.512Z,4208
2018-02-27T10:57:07.347Z,4128
2018-02-27T10:58:16.171Z,3576
2018-02-27T10:59:25.015Z,3748
2018-02-27T11:00:33.822Z,4416
2018-02-27T11:01:42.648Z,4108
2018-02-27T11:02:51.475Z,5068
2018-02-27T11:04:00.300Z,4920
2018-02-27T11:05:09.278Z,5680
2018-02-27T11:06:18.382Z,5788
2018-02-27T11:07:27.210Z,5852
2018-02-27T11:08:36.038Z,5516
2018-02-27T11:09:44.867Z,5160
2018-02-27T11:10:54.121Z,5428
2018-02-27T11:12:02.946Z,6204
2018-02-27T11:13:11.774Z,6292
2018-02-27T11:14:20.877Z,6396
2018-02-27T11:15:29.703Z,6544
2018-02-27T11:16:38.681Z,6484
2018-02-27T11:17:47.507Z,7220
2018-02-27T11:18:56.338Z,7360
2018-02-27T11:20:05.165Z,7108
2018-02-27T11:21:13.995Z,6272
2018-02-27T11:22:22.922Z,6804
2018-02-27T11:23:31.748Z,6940
2018-02-27T11:24:40.577Z,6960
2018-02-27T11:25:49.409Z,5668
2018-02-27T11:26:58.233Z,5480
2018-02-27T11:28:07.060Z,6824
2018-02-27T11:29:15.889Z,7616
2018-02-27T11:30:24.719Z,7760
2018-02-27T11:31:33.547Z,7604
2018-02-27T11:32:42.376Z,6864
2018-02-27T11:33:51.256Z,7176
2018-02-27T11:35:00.364Z,7376
2018-02-27T11:36:09.194Z,6908
2018-02-27T11:37:18.023Z,6360
2018-02-27T11:38:26.855Z,6396
2018-02-27T11:39:35.935Z,6880
2018-02-27T11:40:44.765Z,6384
2018-02-27T11:41:53.595Z,6052
2018-02-27T11:43:02.423Z,5976
2018-02-27T11:44:11.353Z,6564
2018-02-27T11:45:20.512Z,6680
2018-02-27T11:46:29.340Z,5976
2018-02-27T11:47:38.171Z,6440
2018-02-27T11:48:46.998Z,6888
2018-02-27T11:49:55.827Z,7372
2018-02-27T11:51:04.956Z,7376
2018-02-27T11:52:13.784Z,7712
2018-02-27T11:53:22.613Z,7680
2018-02-27T11:54:31.441Z,7904
2018-02-27T11:55:40.268Z,6692
2018-02-27T11:56:49.346Z,5780
2018-02-27T11:57:58.175Z,6252
2018-02-27T11:59:07.002Z,6744
2018-02-27T12:00:15.835Z,6284
2018-02-27T12:01:24.664Z,6152
2018-02-27T12:02:33.491Z,5704
2018-02-27T12:03:42.321Z,6312
2018-02-27T12:04:51.150Z,6320
2018-02-27T12:05:59.975Z,6104
2018-02-27T12:07:08.806Z,5676
2018-02-27T12:08:17.653Z,5364
2018-02-27T12:09:26.462Z,4880
2018-02-27T12:10:35.291Z,4728
2018-02-27T12:11:44.119Z,5928
2018-02-27T12:12:53.224Z,8772
2018-02-27T12:14:02.453Z,10416
2018-02-27T12:15:11.285Z,10692
2018-02-27T12:16:20.114Z,13224
2018-02-27T12:17:28.945Z,18400
2018-02-27T12:18:37.774Z,14584
2018-02-27T12:19:46.602Z,15424
2018-02-27T12:20:55.433Z,8300
2018-02-27T12:22:04.265Z,5848
2018-02-27T12:23:13.101Z,4624
2018-02-27T12:24:21.926Z,4520
2018-02-27T12:25:31.057Z,5056
2018-02-27T12:26:39.891Z,9796
2018-02-27T12:27:48.720Z,6656
2018-02-27T12:28:57.551Z,7384
2018-02-27T12:30:06.376Z,7840
2018-02-27T12:31:15.305Z,9112
2018-02-27T12:32:24.143Z,10648
2018-02-27T12:33:33.247Z,9428
2018-02-27T12:34:42.075Z,8176
2018-02-27T12:35:50.913Z,8692
2018-02-27T12:36:59.837Z,7792
2018-02-27T12:38:08.666Z,7580
2018-02-27T12:39:17.498Z,7512
2018-02-27T12:40:26.330Z,7736
2018-02-27T12:41:35.158Z,7816
2018-02-27T12:42:43.984Z,7800
2018-02-27T12:43:52.814Z,7884
2018-02-27T12:45:01.649Z,9940
2018-02-27T12:46:10.476Z,12064
2018-02-27T12:47:19.310Z,11284
2018-02-27T12:48:28.287Z,11788
2018-02-27T12:49:37.394Z,11664
2018-02-27T12:50:46.225Z,10532
2018-02-27T12:51:55.060Z,9296
2018-02-27T12:53:03.890Z,7848
2018-02-27T12:54:12.771Z,6216
2018-02-27T12:55:21.602Z,5424
2018-02-27T12:56:30.434Z,5152
2018-02-27T12:57:39.264Z,5196
2018-02-27T12:58:48.096Z,5620
2018-02-27T12:59:57.412Z,6352
2018-02-27T13:01:06.240Z,7136
2018-02-27T13:02:15.071Z,7452
2018-02-27T13:03:23.904Z,7496
2018-02-27T13:04:32.736Z,7200
2018-02-27T13:05:41.669Z,7448
2018-02-27T13:06:50.548Z,8308
2018-02-27T13:07:59.616Z,6000
2018-02-27T13:09:08.446Z,5728
2018-02-27T13:10:17.278Z,5512
2018-02-27T13:11:26.209Z,6388
2018-02-27T13:12:35.313Z,6052
2018-02-27T13:13:44.144Z,4732
2018-02-27T13:14:52.972Z,6156
2018-02-27T13:16:01.805Z,13908
2018-02-27T13:17:11.065Z,16544
2018-02-27T13:18:19.895Z,22016
2018-02-27T13:19:28.728Z,15872
2018-02-27T13:20:37.561Z,13176
2018-02-27T13:21:46.394Z,17600
2018-02-27T13:22:55.507Z,18464
2018-02-27T13:24:04.340Z,9896
2018-02-27T13:25:13.173Z,9040
2018-02-27T13:26:22.004Z,9228
2018-02-27T13:27:30.838Z,7300
2018-02-27T13:28:39.922Z,7556
2018-02-27T13:29:48.753Z,7172
2018-02-27T13:30:57.588Z,7448
2018-02-27T13:32:06.420Z,6644
2018-02-27T13:33:15.255Z,6500
2018-02-27T13:34:24.093Z,6728
2018-02-27T13:35:32.922Z,6820
2018-02-27T13:36:41.755Z,6900
2018-02-27T13:37:50.595Z,6852
2018-02-27T13:38:59.700Z,7100
2018-02-27T13:40:08.632Z,7356
2018-02-27T13:41:17.464Z,10164
2018-02-27T13:42:26.569Z,14816
2018-02-27T13:43:35.403Z,15328
2018-02-27T13:44:44.508Z,12024
2018-02-27T13:45:53.646Z,14100
2018-02-27T13:47:02.753Z,19936
2018-02-27T13:48:11.585Z,19776
2018-02-27T13:49:24.844Z,18528
2018-02-27T13:50:29.251Z,12420
2018-02-27T13:51:38.236Z,5764
2018-02-27T13:52:47.069Z,5428
2018-02-27T13:53:55.907Z,5288
2018-02-27T13:55:04.739Z,5308
2018-02-27T13:56:13.846Z,5396
2018-02-27T13:57:22.829Z,5472
2018-02-27T13:58:31.939Z,6316
2018-02-27T13:59:41.056Z,10164
2018-02-27T14:00:49.883Z,6368
2018-02-27T14:01:58.996Z,9656
2018-02-27T14:03:07.931Z,6892
2018-02-27T14:04:16.761Z,5128
2018-02-27T14:05:25.592Z,5448
2018-02-27T14:06:34.423Z,6188
2018-02-27T14:07:43.252Z,6648
2018-02-27T14:08:52.256Z,7444
2018-02-27T14:10:01.063Z,9296
2018-02-27T14:11:09.895Z,11296
2018-02-27T14:12:18.728Z,13776
2018-02-27T14:13:27.854Z,13108
2018-02-27T14:14:36.835Z,9792
2018-02-27T14:15:45.672Z,12044
2018-02-27T14:16:54.782Z,13972
2018-02-27T14:18:03.896Z,14436
2018-02-27T14:19:13.001Z,13564
2018-02-27T14:20:21.931Z,14944
2018-02-27T14:21:30.767Z,16544
2018-02-27T14:22:39.600Z,17792
2018-02-27T14:23:48.432Z,17216
2018-02-27T14:24:57.264Z,6484
2018-02-27T14:26:06.397Z,3740
2018-02-27T14:27:15.510Z,2736
2018-02-27T14:28:24.341Z,3160
2018-02-27T14:29:33.174Z,2372
2018-02-27T14:30:42.008Z,2444
2018-02-27T14:31:50.841Z,2476
2018-02-27T14:32:59.673Z,2572
2018-02-27T14:34:08.555Z,2696
2018-02-27T14:35:17.391Z,2824
2018-02-27T14:36:26.216Z,2952
2018-02-27T14:37:35.146Z,3108
2018-02-27T14:38:43.977Z,3248
2018-02-27T14:39:53.151Z,3360
2018-02-27T14:41:01.982Z,3428
2018-02-27T14:42:10.815Z,3488
2018-02-27T14:43:19.745Z,3576
2018-02-27T14:44:28.573Z,3680
2018-02-27T14:45:37.401Z,3792
2018-02-27T14:46:46.232Z,3900
2018-02-27T14:47:55.339Z,4028
2018-02-27T14:49:04.568Z,4104
2018-02-27T14:50:13.397Z,4180
2018-02-27T14:51:22.227Z,4096
2018-02-27T14:52:31.063Z,3940
2018-02-27T14:53:39.903Z,3780
2018-02-27T14:54:49.131Z,3644
2018-02-27T14:55:57.964Z,3544
2018-02-27T14:57:06.789Z,3496
2018-02-27T14:58:15.619Z,3520
2018-02-27T14:59:24.450Z,3588
2018-02-27T15:00:33.430Z,4384
2018-02-27T15:01:42.256Z,4732
2018-02-27T15:02:51.083Z,5260
2018-02-27T15:03:59.910Z,5188
2018-02-27T15:05:08.740Z,5376
2018-02-27T15:06:17.666Z,6544
2018-02-27T15:07:26.495Z,6272
2018-02-27T15:08:35.324Z,5304
2018-02-27T15:09:44.156Z,4708
2018-02-27T15:10:52.983Z,3884
2018-02-27T15:12:01.910Z,4100
2018-02-27T15:13:10.737Z,5184
2018-02-27T15:14:19.563Z,5580
2018-02-27T15:15:28.395Z,6408
2018-02-27T15:16:37.228Z,7248
2018-02-27T15:17:46.048Z,7548
2018-02-27T15:18:54.877Z,6764
2018-02-27T15:20:03.714Z,4404
2018-02-27T15:21:12.552Z,2796
2018-02-27T15:22:21.404Z,3480
2018-02-27T15:23:30.531Z,4828
2018-02-27T15:24:39.359Z,6292
2018-02-27T15:25:48.191Z,6936
2018-02-27T15:26:57.017Z,4524
2018-02-27T15:28:06.123Z,3704
2018-02-27T15:29:15.227Z,2780
2018-02-27T15:30:24.062Z,3280
2018-02-27T15:31:32.905Z,4260
2018-02-27T15:32:41.830Z,4660
2018-02-27T15:33:50.972Z,6984
2018-02-27T15:34:59.975Z,7628
2018-02-27T15:36:08.812Z,7404
2018-02-27T15:37:17.643Z,5264
2018-02-27T15:38:26.472Z,5184
2018-02-27T15:39:35.301Z,6340
2018-02-27T15:40:44.128Z,4188
2018-02-27T15:41:52.959Z,2588
2018-02-27T15:43:01.790Z,3520
2018-02-27T15:44:10.623Z,3020
2018-02-27T15:45:19.454Z,3424
2018-02-27T15:46:28.282Z,3176
2018-02-27T15:47:37.111Z,3888
2018-02-27T15:48:45.940Z,2996
2018-02-27T15:49:54.916Z,2616
2018-02-27T15:51:03.652Z,2676
2018-02-27T15:52:12.756Z,2604
2018-02-27T15:53:21.858Z,2416
2018-02-27T15:54:30.687Z,2428